createdAt,value
2022-09-03T00:00:04.244Z,1005.95
2022-09-03T00:01:04.526Z,1005.92
2022-09-03T00:02:05.203Z,1005.90
2022-09-03T00:03:04.179Z,1005.85
2022-09-03T00:04:04.999Z,1005.87
2022-09-03T00:05:04.144Z,1005.84
2022-09-03T00:06:04.150Z,1005.83
2022-09-03T00:07:04.303Z,1005.85
2022-09-03T00:08:04.132Z,1005.84
2022-09-03T00:09:04.004Z,1005.82
2022-09-03T00:10:04.038Z,1005.82
2022-09-03T00:11:04.024Z,1005.82
2022-09-03T00:12:04.053Z,1005.81
2022-09-03T00:13:04.482Z,1005.81
2022-09-03T00:14:04.004Z,1005.81
2022-09-03T00:15:04.039Z,1005.79
2022-09-03T00:16:04.148Z,1005.81
2022-09-03T00:17:04.118Z,1005.78
2022-09-03T00:18:03.846Z,1005.78
2022-09-03T00:19:04.218Z,1005.79
2022-09-03T00:20:03.945Z,1005.83
2022-09-03T00:21:03.855Z,1005.78
2022-09-03T00:22:03.780Z,1005.75
2022-09-03T00:23:03.767Z,1005.74
2022-09-03T00:24:03.748Z,1005.73
2022-09-03T00:25:03.739Z,1005.76
2022-09-03T00:26:03.770Z,1005.71
2022-09-03T00:27:03.852Z,1005.73
2022-09-03T00:28:03.700Z,1005.70
2022-09-03T00:29:03.684Z,1005.73
2022-09-03T00:30:03.694Z,1005.69
2022-09-03T00:31:03.675Z,1005.69
2022-09-03T00:32:03.658Z,1005.70
2022-09-03T00:33:03.654Z,1005.67
2022-09-03T00:34:03.655Z,1005.71
2022-09-03T00:35:03.605Z,1005.69
2022-09-03T00:36:03.706Z,1005.66
2022-09-03T00:37:03.797Z,1005.68
2022-09-03T00:38:03.651Z,1005.68
2022-09-03T00:39:03.706Z,1005.64
2022-09-03T00:40:03.861Z,1005.67
2022-09-03T00:41:03.753Z,1005.67
2022-09-03T00:42:03.720Z,1005.64
2022-09-03T00:43:03.634Z,1005.67
2022-09-03T00:44:03.802Z,1005.67
2022-09-03T00:45:03.672Z,1005.66
2022-09-03T00:46:03.627Z,1005.63
2022-09-03T00:47:03.828Z,1005.66
2022-09-03T00:48:03.690Z,1005.63
2022-09-03T00:49:03.783Z,1005.66
2022-09-03T00:50:03.683Z,1005.62
2022-09-03T00:51:03.770Z,1005.59
2022-09-03T00:52:03.615Z,1005.63
2022-09-03T00:53:03.914Z,1005.61
2022-09-03T00:54:03.532Z,1005.56
2022-09-03T00:55:03.548Z,1005.56
2022-09-03T00:56:03.470Z,1005.57
2022-09-03T00:57:03.546Z,1005.59
2022-09-03T00:58:03.592Z,1005.57
2022-09-03T00:59:03.574Z,1005.57
2022-09-03T01:00:03.600Z,1005.55
2022-09-03T01:01:03.621Z,1005.55
2022-09-03T01:02:03.728Z,1005.55
2022-09-03T01:03:03.447Z,1005.58
2022-09-03T01:04:03.362Z,1005.59
2022-09-03T01:05:03.549Z,1005.59
2022-09-03T01:06:03.429Z,1005.60
2022-09-03T01:07:03.347Z,1005.59
2022-09-03T01:08:03.393Z,1005.58
2022-09-03T01:09:03.423Z,1005.59
2022-09-03T01:10:03.399Z,1005.58
2022-09-03T01:11:03.436Z,1005.57
2022-09-03T01:12:03.503Z,1005.58
2022-09-03T01:13:04.451Z,1005.59
2022-09-03T01:14:03.333Z,1005.58
2022-09-03T01:15:03.266Z,1005.54
2022-09-03T01:16:03.338Z,1005.58
2022-09-03T01:17:03.303Z,1005.56
2022-09-03T01:18:03.308Z,1005.57
2022-09-03T01:19:03.224Z,1005.57
2022-09-03T01:20:03.315Z,1005.53
2022-09-03T01:21:03.278Z,1005.55
2022-09-03T01:22:03.226Z,1005.55
2022-09-03T01:23:03.591Z,1005.53
2022-09-03T01:24:03.477Z,1005.58
2022-09-03T01:25:03.109Z,1005.55
2022-09-03T01:26:03.247Z,1005.59
2022-09-03T01:27:03.284Z,1005.57
2022-09-03T01:28:03.275Z,1005.59
2022-09-03T01:29:03.206Z,1005.59
2022-09-03T01:30:03.146Z,1005.68
2022-09-03T01:33:21.304Z,1005.66
2022-09-03T01:34:21.396Z,1005.64
2022-09-03T01:35:21.371Z,1005.69
2022-09-03T01:36:21.403Z,1005.71
2022-09-03T01:37:21.409Z,1005.71
2022-09-03T01:38:21.368Z,1005.75
2022-09-03T01:39:21.388Z,1005.72
2022-09-03T01:40:21.339Z,1005.72
2022-09-03T01:41:21.452Z,1005.73
2022-09-03T01:42:21.342Z,1005.73
2022-09-03T01:43:21.030Z,1005.73
2022-09-03T01:44:21.034Z,1005.71
2022-09-03T01:45:21.204Z,1005.73
2022-09-03T01:46:21.260Z,1005.71
2022-09-03T01:47:21.186Z,1005.70
2022-09-03T01:48:21.030Z,1005.72
2022-09-03T01:49:21.207Z,1005.70
2022-09-03T01:50:21.027Z,1005.68
2022-09-03T01:51:21.109Z,1005.68
2022-09-03T01:52:21.176Z,1005.70
2022-09-03T01:53:20.979Z,1005.65
2022-09-03T01:54:21.726Z,1005.66
2022-09-03T01:55:20.917Z,1005.67
2022-09-03T01:56:20.994Z,1005.62
2022-09-03T01:57:34.574Z,1005.62
2022-09-03T01:58:22.008Z,1005.62
2022-09-03T01:59:20.993Z,1005.63
2022-09-03T02:00:20.922Z,1005.63
2022-09-03T02:01:21.130Z,1005.67
2022-09-03T02:02:21.011Z,1005.67
2022-09-03T02:03:20.876Z,1005.64
2022-09-03T02:04:20.873Z,1005.69
2022-09-03T02:05:20.837Z,1005.72
2022-09-03T02:06:20.814Z,1005.71
2022-09-03T02:07:20.811Z,1005.70
2022-09-03T02:08:20.898Z,1005.73
2022-09-03T02:09:20.883Z,1005.72
2022-09-03T02:10:20.895Z,1005.74
2022-09-03T02:11:20.878Z,1005.74
2022-09-03T02:12:20.837Z,1005.71
2022-09-03T02:13:20.808Z,1005.65
2022-09-03T02:14:20.855Z,1005.69
2022-09-03T02:15:20.816Z,1005.66
2022-09-03T02:16:20.913Z,1005.66
2022-09-03T02:17:20.802Z,1005.71
2022-09-03T02:18:20.763Z,1005.70
2022-09-03T02:19:20.732Z,1005.65
2022-09-03T02:20:20.770Z,1005.69
2022-09-03T02:21:20.968Z,1005.65
2022-09-03T02:22:20.763Z,1005.64
2022-09-03T02:23:27.501Z,1005.66
2022-09-03T02:24:21.672Z,1005.61
2022-09-03T02:25:20.620Z,1005.60
2022-09-03T02:26:20.703Z,1005.62
2022-09-03T02:27:20.780Z,1005.62
2022-09-03T02:28:20.725Z,1005.64
2022-09-03T02:29:20.657Z,1005.61
2022-09-03T02:30:20.636Z,1005.68
2022-09-03T02:31:20.636Z,1005.67
2022-09-03T02:32:20.538Z,1005.66
2022-09-03T02:33:20.650Z,1005.72
2022-09-03T02:34:20.622Z,1005.72
2022-09-03T02:35:20.557Z,1005.68
2022-09-03T02:36:20.522Z,1005.72
2022-09-03T02:37:20.546Z,1005.71
2022-09-03T02:38:20.616Z,1005.72
2022-09-03T02:39:20.522Z,1005.74
2022-09-03T02:40:20.522Z,1005.73
2022-09-03T02:41:20.679Z,1005.69
2022-09-03T02:42:20.495Z,1005.68
2022-09-03T02:43:20.460Z,1005.67
2022-09-03T02:44:21.505Z,1005.65
2022-09-03T02:45:20.459Z,1005.64
2022-09-03T02:46:20.537Z,1005.69
2022-09-03T02:47:20.496Z,1005.66
2022-09-03T02:48:20.558Z,1005.66
2022-09-03T02:49:20.399Z,1005.64
2022-09-03T02:50:20.395Z,1005.63
2022-09-03T02:51:20.411Z,1005.59
2022-09-03T02:52:20.357Z,1005.62
2022-09-03T02:53:20.599Z,1005.64
2022-09-03T02:54:21.290Z,1005.65
2022-09-03T02:55:20.767Z,1005.71
2022-09-03T02:56:20.295Z,1005.67
2022-09-03T02:57:27.269Z,1005.67
2022-09-03T02:58:21.417Z,1005.66
2022-09-03T02:59:20.283Z,1005.65
2022-09-03T03:00:20.264Z,1005.66
2022-09-03T03:01:23.809Z,1005.67
2022-09-03T03:02:20.362Z,1005.66
2022-09-03T03:03:20.479Z,1005.64
2022-09-03T03:04:20.259Z,1005.62
2022-09-03T03:05:20.280Z,1005.64
2022-09-03T03:06:20.329Z,1005.63
2022-09-03T03:07:20.217Z,1005.62
2022-09-03T03:08:20.299Z,1005.62
2022-09-03T03:09:20.158Z,1005.58
2022-09-03T03:10:20.366Z,1005.59
2022-09-03T03:11:20.141Z,1005.62
2022-09-03T03:12:20.112Z,1005.58
2022-09-03T03:13:20.270Z,1005.56
2022-09-03T03:14:20.317Z,1005.59
2022-09-03T03:15:20.118Z,1005.54
2022-09-03T03:16:20.190Z,1005.56
2022-09-03T03:17:20.208Z,1005.52
2022-09-03T03:18:20.211Z,1005.54
2022-09-03T03:19:20.095Z,1005.54
2022-09-03T03:20:20.108Z,1005.52
2022-09-03T03:21:20.062Z,1005.55
2022-09-03T03:22:20.053Z,1005.52
2022-09-03T03:23:20.050Z,1005.53
2022-09-03T03:24:20.056Z,1005.50
2022-09-03T03:25:20.026Z,1005.47
2022-09-03T03:26:19.949Z,1005.49
2022-09-03T03:27:19.965Z,1005.47
2022-09-03T03:28:22.755Z,1005.44
2022-09-03T03:29:20.107Z,1005.50
2022-09-03T03:30:20.026Z,1005.46
2022-09-03T03:31:20.136Z,1005.47
2022-09-03T03:32:20.035Z,1005.46
2022-09-03T03:33:20.051Z,1005.51
2022-09-03T03:34:19.936Z,1005.49
2022-09-03T03:35:19.932Z,1005.49
2022-09-03T03:36:19.949Z,1005.52
2022-09-03T03:37:19.884Z,1005.53
2022-09-03T03:38:19.883Z,1005.54
2022-09-03T03:39:19.857Z,1005.53
2022-09-03T03:40:19.894Z,1005.53
2022-09-03T03:41:19.825Z,1005.53
2022-09-03T03:42:19.890Z,1005.57
2022-09-03T03:43:19.937Z,1005.60
2022-09-03T03:44:19.827Z,1005.59
2022-09-03T03:45:19.825Z,1005.58
2022-09-03T03:46:19.946Z,1005.61
2022-09-03T03:47:19.821Z,1005.62
2022-09-03T03:48:19.833Z,1005.64
2022-09-03T03:49:19.717Z,1005.62
2022-09-03T03:50:19.699Z,1005.63
2022-09-03T03:51:19.750Z,1005.59
2022-09-03T03:52:19.771Z,1005.63
2022-09-03T03:53:19.773Z,1005.57
2022-09-03T03:54:19.734Z,1005.61
2022-09-03T03:55:19.706Z,1005.58
2022-09-03T03:56:20.003Z,1005.61
2022-09-03T03:57:19.687Z,1005.59
2022-09-03T03:58:19.646Z,1005.58
2022-09-03T03:59:19.819Z,1005.58
2022-09-03T04:00:19.659Z,1005.59
2022-09-03T04:01:19.595Z,1005.57
2022-09-03T04:02:19.705Z,1005.58
2022-09-03T04:03:19.583Z,1005.60
2022-09-03T04:04:19.731Z,1005.63
2022-09-03T04:05:23.125Z,1005.61
2022-09-03T04:06:19.612Z,1005.60
2022-09-03T04:07:19.577Z,1005.59
2022-09-03T04:08:19.549Z,1005.59
2022-09-03T04:09:19.475Z,1005.59
2022-09-03T04:10:19.693Z,1005.58
2022-09-03T04:11:19.582Z,1005.54
2022-09-03T04:12:19.488Z,1005.49
2022-09-03T04:13:19.454Z,1005.54
2022-09-03T04:14:19.530Z,1005.54
2022-09-03T04:15:19.481Z,1005.57
2022-09-03T04:16:19.652Z,1005.56
2022-09-03T04:17:24.547Z,1005.57
2022-09-03T04:18:20.432Z,1005.55
2022-09-03T04:19:19.440Z,1005.55
2022-09-03T04:20:19.501Z,1005.54
2022-09-03T04:21:19.344Z,1005.52
2022-09-03T04:22:19.500Z,1005.56
2022-09-03T04:23:19.374Z,1005.56
2022-09-03T04:24:19.830Z,1005.55
2022-09-03T04:25:19.357Z,1005.56
2022-09-03T04:26:19.342Z,1005.59
2022-09-03T04:27:19.441Z,1005.55
2022-09-03T04:28:19.383Z,1005.55
2022-09-03T04:29:19.323Z,1005.52
2022-09-03T04:30:19.338Z,1005.53
2022-09-03T04:31:19.686Z,1005.49
2022-09-03T04:32:19.315Z,1005.46
2022-09-03T04:33:19.267Z,1005.47
2022-09-03T04:34:19.389Z,1005.47
2022-09-03T04:35:19.375Z,1005.41
2022-09-03T04:36:19.316Z,1005.42
2022-09-03T04:37:19.297Z,1005.44
2022-09-03T04:38:19.288Z,1005.41
2022-09-03T04:39:19.229Z,1005.33
2022-09-03T04:40:19.168Z,1005.43
2022-09-03T04:41:19.156Z,1005.38
2022-09-03T04:42:19.271Z,1005.38
2022-09-03T04:43:19.218Z,1005.36
2022-09-03T04:44:19.224Z,1005.31
2022-09-03T04:45:19.169Z,1005.36
2022-09-03T04:46:19.363Z,1005.33
2022-09-03T04:47:19.162Z,1005.37
2022-09-03T04:48:19.130Z,1005.39
2022-09-03T04:49:19.149Z,1005.39
2022-09-03T04:50:19.150Z,1005.41
2022-09-03T04:51:19.087Z,1005.45
2022-09-03T04:52:19.087Z,1005.39
2022-09-03T04:53:19.290Z,1005.41
2022-09-03T04:54:19.140Z,1005.42
2022-09-03T04:55:18.980Z,1005.42
2022-09-03T04:56:19.046Z,1005.41
2022-09-03T04:57:19.002Z,1005.41
2022-09-03T04:58:19.108Z,1005.43
2022-09-03T04:59:27.744Z,1005.43
2022-09-03T05:00:20.846Z,1005.39
2022-09-03T05:01:20.758Z,1005.40
2022-09-03T05:02:18.918Z,1005.45
2022-09-03T05:03:18.888Z,1005.42
2022-09-03T05:04:18.880Z,1005.39
2022-09-03T05:05:18.889Z,1005.41
2022-09-03T05:06:18.847Z,1005.41
2022-09-03T05:07:18.859Z,1005.46
2022-09-03T05:08:18.835Z,1005.44
2022-09-03T05:09:18.825Z,1005.45
2022-09-03T05:10:18.806Z,1005.44
2022-09-03T05:11:18.798Z,1005.45
2022-09-03T05:12:18.793Z,1005.45
2022-09-03T05:13:18.791Z,1005.40
2022-09-03T05:14:18.766Z,1005.46
2022-09-03T05:15:18.748Z,1005.46
2022-09-03T05:16:18.789Z,1005.43
2022-09-03T05:17:18.734Z,1005.42
2022-09-03T05:18:18.747Z,1005.42
2022-09-03T05:19:18.712Z,1005.42
2022-09-03T05:20:18.709Z,1005.41
2022-09-03T05:21:18.698Z,1005.47
2022-09-03T05:22:18.681Z,1005.45
2022-09-03T05:23:18.671Z,1005.43
2022-09-03T05:24:18.662Z,1005.37
2022-09-03T05:25:18.647Z,1005.37
2022-09-03T05:26:18.639Z,1005.36
2022-09-03T05:27:18.649Z,1005.35
2022-09-03T05:28:18.819Z,1005.39
2022-09-03T05:29:18.618Z,1005.36
2022-09-03T05:30:18.615Z,1005.38
2022-09-03T05:31:18.662Z,1005.44
2022-09-03T05:32:18.566Z,1005.44
2022-09-03T05:33:18.566Z,1005.43
2022-09-03T05:34:18.724Z,1005.35
2022-09-03T05:35:20.971Z,1005.33
2022-09-03T05:36:18.520Z,1005.38
2022-09-03T05:37:18.516Z,1005.35
2022-09-03T05:38:18.508Z,1005.35
2022-09-03T05:39:18.543Z,1005.40
2022-09-03T05:40:18.479Z,1005.39
2022-09-03T05:41:19.136Z,1005.44
2022-09-03T05:42:18.467Z,1005.43
2022-09-03T05:43:18.448Z,1005.41
2022-09-03T05:44:18.434Z,1005.41
2022-09-03T05:45:18.557Z,1005.41
2022-09-03T05:46:18.406Z,1005.35
2022-09-03T05:47:18.422Z,1005.35
2022-09-03T05:48:18.388Z,1005.38
2022-09-03T05:49:18.416Z,1005.39
2022-09-03T05:50:18.370Z,1005.39
2022-09-03T05:51:18.377Z,1005.40
2022-09-03T05:52:18.363Z,1005.39
2022-09-03T05:53:18.368Z,1005.38
2022-09-03T05:54:18.331Z,1005.36
2022-09-03T05:55:18.339Z,1005.34
2022-09-03T05:56:18.308Z,1005.33
2022-09-03T05:57:18.319Z,1005.35
2022-09-03T05:58:18.280Z,1005.37
2022-09-03T05:59:18.528Z,1005.31
2022-09-03T06:00:18.374Z,1005.31
2022-09-03T06:01:18.268Z,1005.35
2022-09-03T06:02:18.391Z,1005.33
2022-09-03T06:03:18.419Z,1005.34
2022-09-03T06:04:18.270Z,1005.33
2022-09-03T06:05:18.223Z,1005.32
2022-09-03T06:06:18.213Z,1005.31
2022-09-03T06:07:18.189Z,1005.34
2022-09-03T06:08:18.171Z,1005.32
2022-09-03T06:09:18.189Z,1005.34
2022-09-03T06:10:20.282Z,1005.27
2022-09-03T06:11:19.142Z,1005.28
2022-09-03T06:12:18.131Z,1005.31
2022-09-03T06:13:18.166Z,1005.34
2022-09-03T06:14:18.122Z,1005.31
2022-09-03T06:15:18.107Z,1005.34
2022-09-03T06:16:18.186Z,1005.39
2022-09-03T06:17:19.084Z,1005.34
2022-09-03T06:18:18.077Z,1005.35
2022-09-03T06:19:18.082Z,1005.30
2022-09-03T06:20:18.054Z,1005.32
2022-09-03T06:21:18.041Z,1005.35
2022-09-03T06:22:18.037Z,1005.38
2022-09-03T06:23:18.037Z,1005.37
2022-09-03T06:24:18.008Z,1005.35
2022-09-03T06:25:17.989Z,1005.35
2022-09-03T06:26:17.980Z,1005.34
2022-09-03T06:27:17.976Z,1005.33
2022-09-03T06:28:17.977Z,1005.36
2022-09-03T06:29:20.146Z,1005.36
2022-09-03T06:30:17.985Z,1005.36
2022-09-03T06:31:17.987Z,1005.38
2022-09-03T06:32:18.199Z,1005.36
2022-09-03T06:33:17.920Z,1005.34
2022-09-03T06:34:17.920Z,1005.36
2022-09-03T06:35:17.916Z,1005.34
2022-09-03T06:36:17.877Z,1005.34
2022-09-03T06:37:17.873Z,1005.37
2022-09-03T06:38:17.859Z,1005.36
2022-09-03T06:39:17.916Z,1005.35
2022-09-03T06:40:17.842Z,1005.28
2022-09-03T06:41:17.832Z,1005.37
2022-09-03T06:42:17.819Z,1005.34
2022-09-03T06:43:17.824Z,1005.35
2022-09-03T06:44:17.791Z,1005.36
2022-09-03T06:45:17.791Z,1005.40
2022-09-03T06:46:17.840Z,1005.36
2022-09-03T06:47:17.765Z,1005.42
2022-09-03T06:48:17.761Z,1005.39
2022-09-03T06:49:17.760Z,1005.32
2022-09-03T06:50:17.742Z,1005.32
2022-09-03T06:51:17.978Z,1005.33
2022-09-03T06:52:17.734Z,1005.33
2022-09-03T06:53:17.710Z,1005.37
2022-09-03T06:54:17.676Z,1005.34
2022-09-03T06:55:18.636Z,1005.38
2022-09-03T06:56:17.694Z,1005.35
2022-09-03T06:57:17.782Z,1005.34
2022-09-03T06:58:17.682Z,1005.34
2022-09-03T06:59:17.633Z,1005.36
2022-09-03T07:00:17.979Z,1005.36
2022-09-03T07:01:17.737Z,1005.36
2022-09-03T07:02:17.813Z,1005.34
2022-09-03T07:03:17.601Z,1005.33
2022-09-03T07:04:19.361Z,1005.36
2022-09-03T07:05:17.584Z,1005.40
2022-09-03T07:06:17.559Z,1005.40
2022-09-03T07:07:17.550Z,1005.34
2022-09-03T07:08:17.543Z,1005.36
2022-09-03T07:09:17.528Z,1005.39
2022-09-03T07:10:17.517Z,1005.40
2022-09-03T07:11:17.505Z,1005.40
2022-09-03T07:12:17.511Z,1005.42
2022-09-03T07:13:17.493Z,1005.44
2022-09-03T07:14:17.483Z,1005.47
2022-09-03T07:15:17.455Z,1005.41
2022-09-03T07:16:17.529Z,1005.36
2022-09-03T07:17:17.448Z,1005.38
2022-09-03T07:18:17.554Z,1005.37
2022-09-03T07:19:17.415Z,1005.43
2022-09-03T07:20:17.406Z,1005.43
2022-09-03T07:21:17.398Z,1005.44
2022-09-03T07:22:17.385Z,1005.47
2022-09-03T07:23:17.409Z,1005.41
2022-09-03T07:24:17.515Z,1005.40
2022-09-03T07:25:17.366Z,1005.37
2022-09-03T07:26:17.348Z,1005.36
2022-09-03T07:27:17.408Z,1005.38
2022-09-03T07:28:17.330Z,1005.42
2022-09-03T07:29:17.319Z,1005.44
2022-09-03T07:30:17.296Z,1005.42
2022-09-03T07:31:17.373Z,1005.39
2022-09-03T07:32:17.294Z,1005.38
2022-09-03T07:33:17.279Z,1005.42
2022-09-03T07:34:17.338Z,1005.33
2022-09-03T07:35:17.253Z,1005.37
2022-09-03T07:36:17.234Z,1005.37
2022-09-03T07:37:17.229Z,1005.34
2022-09-03T07:38:17.216Z,1005.30
2022-09-03T07:39:17.268Z,1005.25
2022-09-03T07:40:17.187Z,1005.24
2022-09-03T07:41:23.946Z,1005.24
2022-09-03T07:42:18.181Z,1005.23
2022-09-03T07:43:17.206Z,1005.26
2022-09-03T07:44:17.161Z,1005.24
2022-09-03T07:45:17.254Z,1005.27
2022-09-03T07:46:17.134Z,1005.20
2022-09-03T07:47:17.264Z,1005.22
2022-09-03T07:48:18.114Z,1005.21
2022-09-03T07:49:17.098Z,1005.26
2022-09-03T07:50:17.078Z,1005.25
2022-09-03T07:51:17.080Z,1005.26
2022-09-03T07:52:17.060Z,1005.19
2022-09-03T07:53:17.071Z,1005.19
2022-09-03T07:54:17.060Z,1005.17
2022-09-03T07:55:17.048Z,1005.21
2022-09-03T07:56:17.039Z,1005.17
2022-09-03T07:57:17.001Z,1005.19
2022-09-03T07:58:17.012Z,1005.19
2022-09-03T07:59:17.241Z,1005.23
2022-09-03T08:00:16.990Z,1005.25
2022-09-03T08:01:17.105Z,1005.25
2022-09-03T08:02:16.981Z,1005.29
2022-09-03T08:03:16.989Z,1005.25
2022-09-03T08:04:17.049Z,1005.22
2022-09-03T08:05:16.924Z,1005.23
2022-09-03T08:06:16.911Z,1005.21
2022-09-03T08:07:16.908Z,1005.25
2022-09-03T08:08:16.903Z,1005.29
2022-09-03T08:09:17.100Z,1005.22
2022-09-03T08:10:16.890Z,1005.25
2022-09-03T08:11:17.093Z,1005.23
2022-09-03T08:12:16.875Z,1005.22
2022-09-03T08:13:16.833Z,1005.27
2022-09-03T08:14:17.248Z,1005.31
2022-09-03T08:15:17.248Z,1005.32
2022-09-03T08:16:16.989Z,1005.30
2022-09-03T08:17:16.813Z,1005.33
2022-09-03T08:18:16.865Z,1005.31
2022-09-03T08:19:16.781Z,1005.33
2022-09-03T08:20:16.775Z,1005.34
2022-09-03T08:21:16.770Z,1005.36
2022-09-03T08:22:16.754Z,1005.36
2022-09-03T08:23:16.744Z,1005.29
2022-09-03T08:24:16.765Z,1005.30
2022-09-03T08:25:16.742Z,1005.31
2022-09-03T08:26:16.710Z,1005.34
2022-09-03T08:27:16.684Z,1005.30
2022-09-03T08:28:16.696Z,1005.31
2022-09-03T08:29:16.677Z,1005.34
2022-09-03T08:30:16.660Z,1005.29
2022-09-03T08:31:16.710Z,1005.32
2022-09-03T08:32:16.665Z,1005.30
2022-09-03T08:33:16.777Z,1005.31
2022-09-03T08:34:16.784Z,1005.31
2022-09-03T08:35:16.590Z,1005.29
2022-09-03T08:36:16.610Z,1005.35
2022-09-03T08:37:16.586Z,1005.31
2022-09-03T08:38:16.576Z,1005.26
2022-09-03T08:39:17.595Z,1005.31
2022-09-03T08:40:16.554Z,1005.28
2022-09-03T08:41:16.539Z,1005.29
2022-09-03T08:42:16.534Z,1005.28
2022-09-03T08:43:16.512Z,1005.33
2022-09-03T08:44:16.509Z,1005.35
2022-09-03T08:45:16.506Z,1005.34
2022-09-03T08:46:16.521Z,1005.32
2022-09-03T08:47:16.493Z,1005.32
2022-09-03T08:48:16.470Z,1005.33
2022-09-03T08:49:18.420Z,1005.37
2022-09-03T08:50:16.435Z,1005.36
2022-09-03T08:51:16.421Z,1005.34
2022-09-03T08:52:16.418Z,1005.33
2022-09-03T08:53:16.409Z,1005.33
2022-09-03T08:54:16.414Z,1005.33
2022-09-03T08:55:16.413Z,1005.34
2022-09-03T08:56:16.391Z,1005.32
2022-09-03T08:57:16.388Z,1005.31
2022-09-03T08:58:16.408Z,1005.25
2022-09-03T08:59:16.339Z,1005.28
2022-09-03T09:00:16.385Z,1005.30
2022-09-03T09:01:16.392Z,1005.21
2022-09-03T09:02:16.519Z,1005.30
2022-09-03T09:03:16.515Z,1005.30
2022-09-03T09:04:16.300Z,1005.26
2022-09-03T09:05:16.286Z,1005.25
2022-09-03T09:06:16.273Z,1005.19
2022-09-03T09:07:16.248Z,1005.22
2022-09-03T09:08:16.339Z,1005.23
2022-09-03T09:09:16.232Z,1005.24
2022-09-03T09:10:16.232Z,1005.27
2022-09-03T09:11:16.213Z,1005.19
2022-09-03T09:12:16.218Z,1005.16
2022-09-03T09:13:16.386Z,1005.19
2022-09-03T09:14:16.209Z,1005.19
2022-09-03T09:15:16.172Z,1005.16
2022-09-03T09:16:16.269Z,1005.14
2022-09-03T09:17:16.145Z,1005.17
2022-09-03T09:18:16.146Z,1005.11
2022-09-03T09:19:16.153Z,1005.12
2022-09-03T09:20:16.113Z,1005.08
2022-09-03T09:21:21.002Z,1005.06
2022-09-03T09:22:17.104Z,1005.03
2022-09-03T09:23:16.087Z,1005.02
2022-09-03T09:24:16.083Z,1004.99
2022-09-03T09:25:16.078Z,1004.94
2022-09-03T09:26:16.064Z,1005.02
2022-09-03T09:27:16.165Z,1004.97
2022-09-03T09:28:16.094Z,1004.92
2022-09-03T09:29:16.034Z,1004.95
2022-09-03T09:30:16.019Z,1004.94
2022-09-03T09:31:16.105Z,1004.92
2022-09-03T09:32:16.279Z,1004.90
2022-09-03T09:33:15.987Z,1004.92
2022-09-03T09:34:16.039Z,1004.93
2022-09-03T09:35:15.967Z,1005.02
2022-09-03T09:36:15.960Z,1004.96
2022-09-03T09:37:15.937Z,1004.95
2022-09-03T09:38:18.700Z,1004.99
2022-09-03T09:39:15.898Z,1004.98
2022-09-03T09:40:15.920Z,1004.88
2022-09-03T09:41:15.895Z,1004.94
2022-09-03T09:42:15.876Z,1004.87
2022-09-03T09:43:15.886Z,1004.85
2022-09-03T09:44:15.859Z,1004.86
2022-09-03T09:45:15.851Z,1004.85
2022-09-03T09:46:16.236Z,1004.82
2022-09-03T09:47:15.843Z,1004.86
2022-09-03T09:48:15.845Z,1004.85
2022-09-03T09:49:15.831Z,1004.86
2022-09-03T09:50:24.842Z,1004.85
2022-09-03T09:51:16.788Z,1004.81
2022-09-03T09:52:15.778Z,1004.82
2022-09-03T09:53:15.764Z,1004.78
2022-09-03T09:54:15.758Z,1004.83
2022-09-03T09:55:15.746Z,1004.86
2022-09-03T09:56:15.743Z,1004.85
2022-09-03T09:57:15.741Z,1004.84
2022-09-03T09:58:15.764Z,1004.78
2022-09-03T09:59:16.077Z,1004.77
2022-09-03T10:00:15.692Z,1004.71
2022-09-03T10:01:15.693Z,1004.73
2022-09-03T10:02:22.543Z,1004.75
2022-09-03T10:03:16.783Z,1004.74
2022-09-03T10:04:15.642Z,1004.74
2022-09-03T10:05:15.729Z,1004.74
2022-09-03T10:06:15.618Z,1004.76
2022-09-03T10:07:15.610Z,1004.73
2022-09-03T10:08:15.620Z,1004.74
2022-09-03T10:09:16.136Z,1004.74
2022-09-03T10:10:15.645Z,1004.72
2022-09-03T10:11:15.584Z,1004.68
2022-09-03T10:12:15.556Z,1004.69
2022-09-03T10:13:15.566Z,1004.67
2022-09-03T10:14:15.552Z,1004.69
2022-09-03T10:15:15.770Z,1004.67
2022-09-03T10:16:15.569Z,1004.71
2022-09-03T10:17:15.536Z,1004.64
2022-09-03T10:18:15.508Z,1004.67
2022-09-03T10:19:15.488Z,1004.66
2022-09-03T10:20:15.508Z,1004.65
2022-09-03T10:21:15.688Z,1004.66
2022-09-03T10:22:15.481Z,1004.63
2022-09-03T10:23:15.443Z,1004.62
2022-09-03T10:24:15.438Z,1004.70
2022-09-03T10:25:15.424Z,1004.66
2022-09-03T10:26:15.420Z,1004.60
2022-09-03T10:27:15.408Z,1004.60
2022-09-03T10:28:15.423Z,1004.63
2022-09-03T10:29:15.888Z,1004.70
2022-09-03T10:30:15.404Z,1004.63
2022-09-03T10:31:15.513Z,1004.63
2022-09-03T10:32:15.484Z,1004.60
2022-09-03T10:33:15.479Z,1004.62
2022-09-03T10:34:15.369Z,1004.61
2022-09-03T10:35:15.495Z,1004.58
2022-09-03T10:36:15.498Z,1004.56
2022-09-03T10:37:15.302Z,1004.55
2022-09-03T10:38:15.348Z,1004.62
2022-09-03T10:39:15.315Z,1004.56
2022-09-03T10:40:15.361Z,1004.55
2022-09-03T10:41:15.273Z,1004.53
2022-09-03T10:42:15.249Z,1004.59
2022-09-03T10:43:15.331Z,1004.54
2022-09-03T10:44:15.238Z,1004.57
2022-09-03T10:45:15.226Z,1004.55
2022-09-03T10:46:15.260Z,1004.59
2022-09-03T10:47:15.206Z,1004.57
2022-09-03T10:48:15.180Z,1004.53
2022-09-03T10:49:15.152Z,1004.50
2022-09-03T10:50:15.161Z,1004.53
2022-09-03T10:51:15.157Z,1004.54
2022-09-03T10:52:15.144Z,1004.56
2022-09-03T10:53:15.122Z,1004.55
2022-09-03T10:54:15.211Z,1004.53
2022-09-03T10:55:15.131Z,1004.57
2022-09-03T10:56:15.104Z,1004.49
2022-09-03T10:57:15.095Z,1004.47
2022-09-03T10:58:15.096Z,1004.51
2022-09-03T10:59:15.081Z,1004.49
2022-09-03T11:00:15.251Z,1004.51
2022-09-03T11:01:15.102Z,1004.49
2022-09-03T11:02:15.111Z,1004.62
2022-09-03T11:03:15.026Z,1004.50
2022-09-03T11:04:16.016Z,1004.42
2022-09-03T11:05:15.015Z,1004.47
2022-09-03T11:06:15.000Z,1004.50
2022-09-03T11:07:15.045Z,1004.48
2022-09-03T11:08:14.976Z,1004.54
2022-09-03T11:09:14.958Z,1004.44
2022-09-03T11:10:14.975Z,1004.49
2022-09-03T11:11:15.106Z,1004.45
2022-09-03T11:12:14.936Z,1004.49
2022-09-03T11:13:14.918Z,1004.41
2022-09-03T11:14:15.009Z,1004.49
2022-09-03T11:15:14.906Z,1004.60
2022-09-03T11:16:14.987Z,1004.48
2022-09-03T11:17:14.887Z,1004.51
2022-09-03T11:18:14.858Z,1004.56
2022-09-03T11:19:14.850Z,1004.51
2022-09-03T11:20:14.851Z,1004.50
2022-09-03T11:21:14.839Z,1004.49
2022-09-03T11:22:14.834Z,1004.46
2022-09-03T11:23:15.826Z,1004.51
2022-09-03T11:24:14.815Z,1004.51
2022-09-03T11:25:14.780Z,1004.45
2022-09-03T11:26:14.812Z,1004.46
2022-09-03T11:27:14.788Z,1004.47
2022-09-03T11:28:14.769Z,1004.42
2022-09-03T11:29:14.780Z,1004.41
2022-09-03T11:30:14.758Z,1004.42
2022-09-03T11:31:14.777Z,1004.39
2022-09-03T11:32:14.724Z,1004.41
2022-09-03T11:33:14.720Z,1004.45
2022-09-03T11:34:23.444Z,1004.41
2022-09-03T11:35:15.683Z,1004.36
2022-09-03T11:36:14.688Z,1004.27
2022-09-03T11:37:14.663Z,1004.37
2022-09-03T11:38:14.716Z,1004.28
2022-09-03T11:39:15.604Z,1004.31
2022-09-03T11:40:15.137Z,1004.35
2022-09-03T11:41:14.625Z,1004.31
2022-09-03T11:42:14.625Z,1004.31
2022-09-03T11:43:14.676Z,1004.28
2022-09-03T11:44:14.618Z,1004.22
2022-09-03T11:45:14.669Z,1004.30
2022-09-03T11:46:15.229Z,1004.32
2022-09-03T11:47:14.653Z,1004.23
2022-09-03T11:48:14.607Z,1004.26
2022-09-03T11:49:14.551Z,1004.25
2022-09-03T11:50:14.548Z,1004.26
2022-09-03T11:51:14.551Z,1004.24
2022-09-03T11:52:14.534Z,1004.24
2022-09-03T11:53:14.708Z,1004.29
2022-09-03T11:54:14.591Z,1004.30
2022-09-03T11:55:14.772Z,1004.28
2022-09-03T11:56:14.481Z,1004.18
2022-09-03T11:57:14.460Z,1004.14
2022-09-03T11:58:14.463Z,1004.11
2022-09-03T11:59:14.564Z,1004.10
2022-09-03T12:00:14.444Z,1004.17
2022-09-03T12:01:16.108Z,1004.14
2022-09-03T12:02:14.455Z,1004.14
2022-09-03T12:03:14.433Z,1004.17
2022-09-03T12:04:14.437Z,1004.11
2022-09-03T12:05:14.448Z,1004.13
2022-09-03T12:06:14.386Z,1004.14
2022-09-03T12:07:20.053Z,1004.07